Loudon, New Hampshire
Current Conditions -  °F | °C
As of 9:11 AM on Thursday 23 Oct 2014 (Local Time) from KCON Reporting Station
Moderate Rain Moderate Rain  
Wind Chill:   Ceiling: 3200
Heat Index:   Visibility: 4mi
Dew Point:   Wind: 15mph
Humidity: 100%   Direction: 10°N
Pressure: 29.74"   Gusts: 23mph
Location:  43.18°N, 71.56°W
Report Text: KCON 231311Z AUTO 01013G20KT 4SM RA BR FEW018 OVC032 09/09 A2974 RMK AO2 P0008 T00890089
Loading
Personal Weather Stations






























Interactive Weather Map New forecast layout! Learn more

10-Day Weather Forecast

Advertisements
Track Severe Weather on mobile